Capitol Logistics 998


FIMP
Sir Seewoosagur Ramgoolam International Airport
Mauritius, MU
VRMM
Malé International Airport
Male, MV

Activity Log

Date Flight Route Aircraft Duration
09/04/2020 CPX998 Not Available B763 4h 21m
03/31/2020 CPX998 TAPE1B TAPER G454 GAN R329 ATISA A3B B763 4h 33m
12/22/2019 CPX998 OSKAR1 OSKAR TAPER G454 GAN R329 ATISA ATIS2B B763 4h 25m
11/18/2019 CPX998 Not Available B763 4h 37m

Route Details

Aircraft Information
Primary: Boeing 767-300BDSF
Backup: Not Available
Route Data
Distance: 1742nm
Sched. Duration: 3h 54m
Avg. Duration: 4h 29m (+75m)
Times Flown: 4
Recm'd Route: Not Available
Planned Altitude: 35,000ft
Origin Wx: FIMP 200300Z 12010KT 9999 SCT017 24/20 Q1017
Dest. Wx: VRMM 200300Z 27012KT 9999 FEW018 BKN280 30/25 Q1009 NOSIG
Notes:

Financial History
Total Freight: 395,853lbs
Average Load: 98,963lbs/flt
Fuel Used: 192,663lbs
Avg. Fuel Used: 48,166lbs/flt
Fuel Expense: $142,571
Avg. Fuel Expense: $35,643
Avg. Fuel Cost: $0.74/lbs
Total Gross Income: $3,887,277
Pilot Pay: $806
Total Expenses: $420,034
Total Revenue: $3,320,898
Average Revenue: $971,819.13